Time;durP1;ratioP1;P1;durP2;ratioP2;P2;SDS_P1;SDS_P2;PMS_P1;PMS_P2;Temp;Humidity;BMP_temperature;BMP_pressure;BME280_temperature;BME280_humidity;BME280_pressure;Samples;Min_cycle;Max_cycle;Signal;HPM_P1;HPM_P2
2021/07/02 00:01:06;;;;;;;0.60;0.60;;;21.60;99.90;;;;;;4948640;28;20277;-69
2021/07/02 00:03:33;;;;;;;0.60;0.60;;;21.60;99.90;;;;;;4948524;29;20728;-69
2021/07/02 00:06:00;;;;;;;0.80;0.80;;;21.50;99.90;;;;;;4951029;28;20626;-70
2021/07/02 00:08:28;;;;;;;0.60;0.60;;;21.50;99.90;;;;;;4950585;28;20570;-69
2021/07/02 00:10:55;;;;;;;0.60;0.60;;;21.50;99.90;;;;;;4950754;29;20224;-69
2021/07/02 00:13:22;;;;;;;0.50;0.50;;;21.50;99.90;;;;;;4949362;28;20288;-69
2021/07/02 00:15:50;;;;;;;0.70;0.70;;;21.50;99.90;;;;;;4949326;28;20228;-69
2021/07/02 00:18:17;;;;;;;0.60;0.60;;;21.50;99.90;;;;;;4948369;28;20279;-68
2021/07/02 00:20:44;;;;;;;0.45;0.45;;;21.40;99.90;;;;;;4949386;28;20284;-69
2021/07/02 00:23:11;;;;;;;0.40;0.40;;;21.50;99.90;;;;;;4953363;28;20912;-69
2021/07/02 00:25:39;;;;;;;0.40;0.40;;;21.40;99.90;;;;;;4954068;29;20263;-69
2021/07/02 00:28:06;;;;;;;0.60;0.60;;;21.40;99.90;;;;;;4953888;28;20198;-68
2021/07/02 00:30:33;;;;;;;0.60;0.60;;;21.50;99.90;;;;;;4953788;29;20235;-68
2021/07/02 00:33:01;;;;;;;0.45;0.45;;;21.40;99.90;;;;;;4950559;29;20244;-68
2021/07/02 00:35:28;;;;;;;0.60;0.60;;;21.40;99.90;;;;;;4968652;28;20236;-68
2021/07/02 00:37:55;;;;;;;0.52;0.52;;;21.50;99.90;;;;;;4954159;29;20227;-69
2021/07/02 00:40:22;;;;;;;0.40;0.40;;;21.50;99.90;;;;;;4953574;29;20316;-69
2021/07/02 00:42:50;;;;;;;0.50;0.50;;;21.50;99.90;;;;;;4952726;29;20209;-69
2021/07/02 00:45:18;;;;;;;0.60;0.60;;;21.50;99.90;;;;;;4951831;29;20355;-70
2021/07/02 00:47:45;;;;;;;0.50;0.50;;;21.50;99.90;;;;;;4952008;29;20208;-69
2021/07/02 00:50:13;;;;;;;0.70;0.70;;;21.50;99.90;;;;;;4952755;29;20196;-69
2021/07/02 00:52:41;;;;;;;0.40;0.40;;;21.50;99.90;;;;;;4953329;29;20201;-68
2021/07/02 00:55:09;;;;;;;0.50;0.50;;;21.50;99.90;;;;;;4951842;28;20709;-69
2021/07/02 00:57:37;;;;;;;0.50;0.50;;;21.50;99.90;;;;;;4949088;28;20309;-69
2021/07/02 01:00:08;;;;;;;0.55;0.55;;;21.50;99.90;;;;;;4949790;29;20844;-69
2021/07/02 01:02:36;;;;;;;0.50;0.50;;;21.40;99.90;;;;;;4952224;28;20197;-68
2021/07/02 01:05:04;;;;;;;0.40;0.40;;;21.40;99.90;;;;;;4951071;28;20296;-68
2021/07/02 01:07:31;;;;;;;0.55;0.55;;;21.40;99.90;;;;;;4952362;28;20255;-70
2021/07/02 01:10:01;;;;;;;0.47;0.47;;;21.40;99.90;;;;;;4951761;29;20607;-68
2021/07/02 01:12:30;;;;;;;0.50;0.50;;;21.40;99.90;;;;;;4951112;28;20257;-69
2021/07/02 01:14:58;;;;;;;0.52;0.52;;;21.50;99.90;;;;;;4950856;28;20715;-69
2021/07/02 01:17:28;;;;;;;0.50;0.50;;;21.40;99.90;;;;;;4946615;28;20219;-69
2021/07/02 01:19:55;;;;;;;0.52;0.52;;;21.40;99.90;;;;;;4951036;28;20708;-69
2021/07/02 01:22:32;;;;;;;0.50;0.50;;;21.40;99.90;;;;;;4955667;28;20229;-69
2021/07/02 01:25:02;;;;;;;0.70;0.70;;;21.40;99.90;;;;;;4967383;28;20261;-69
2021/07/02 01:27:32;;;;;;;0.60;0.60;;;21.40;99.90;;;;;;4951277;28;20205;-69
2021/07/02 01:30:01;;;;;;;0.70;0.70;;;21.30;99.90;;;;;;4967468;28;20215;-69
2021/07/02 01:32:30;;;;;;;0.70;0.70;;;21.30;99.90;;;;;;4951459;28;20193;-69
2021/07/02 01:34:57;;;;;;;0.60;0.60;;;21.20;99.90;;;;;;4950495;29;20292;-68
2021/07/02 01:37:24;;;;;;;0.50;0.50;;;21.30;99.90;;;;;;4944839;28;20692;-69
2021/07/02 01:39:55;;;;;;;0.63;0.63;;;21.20;99.90;;;;;;4967588;28;20256;-69
2021/07/02 01:42:23;;;;;;;0.50;0.50;;;21.20;99.90;;;;;;4950430;28;20224;-68
2021/07/02 01:44:52;;;;;;;0.60;0.60;;;21.30;99.90;;;;;;4950793;29;20650;-69
2021/07/02 01:47:20;;;;;;;0.63;0.63;;;21.30;99.90;;;;;;4950391;28;20201;-69
2021/07/02 01:49:48;;;;;;;0.47;0.47;;;21.30;99.90;;;;;;4952080;29;20607;-69
2021/07/02 01:52:16;;;;;;;0.65;0.65;;;21.30;99.90;;;;;;4951798;28;20225;-68
2021/07/02 01:54:44;;;;;;;0.70;0.70;;;21.20;99.90;;;;;;4950954;28;20256;-69
2021/07/02 01:57:20;;;;;;;0.80;0.80;;;21.20;99.90;;;;;;4950903;28;20221;-69
2021/07/02 01:59:48;;;;;;;0.50;0.50;;;21.20;99.90;;;;;;4950723;28;20586;-69
2021/07/02 02:02:16;;;;;;;0.60;0.60;;;21.20;99.90;;;;;;4951100;28;20710;-69
2021/07/02 02:04:48;;;;;;;0.50;0.50;;;21.20;99.90;;;;;;4949925;28;20205;-69
2021/07/02 02:07:15;;;;;;;0.60;0.60;;;21.20;99.90;;;;;;4952704;29;20224;-69
2021/07/02 02:09:44;;;;;;;0.60;0.60;;;21.20;99.90;;;;;;4950055;28;20205;-69
2021/07/02 02:12:15;;;;;;;0.60;0.60;;;21.20;99.90;;;;;;4966285;28;20205;-69
2021/07/02 02:14:51;;;;;;;0.70;0.70;;;21.20;99.90;;;;;;4949919;29;20382;-69
2021/07/02 02:17:18;;;;;;;0.63;0.63;;;21.10;99.90;;;;;;4941566;29;20233;-69
2021/07/02 02:19:48;;;;;;;0.70;0.70;;;21.10;99.90;;;;;;4949519;28;20211;-69
2021/07/02 02:22:16;;;;;;;0.60;0.60;;;21.10;99.90;;;;;;4950110;28;20216;-69
2021/07/02 02:24:46;;;;;;;0.60;0.60;;;21.10;99.90;;;;;;4949783;28;20204;-69
2021/07/02 02:27:17;;;;;;;0.70;0.70;;;21.10;99.90;;;;;;4943209;29;20205;-69
2021/07/02 02:29:44;;;;;;;0.65;0.65;;;21.10;99.90;;;;;;4949602;28;20301;-69
2021/07/02 02:32:11;;;;;;;0.77;0.77;;;21.10;99.90;;;;;;4950642;28;20262;-69
2021/07/02 02:34:38;;;;;;;0.75;0.75;;;21.00;99.90;;;;;;4948947;28;20665;-70
2021/07/02 02:37:05;;;;;;;0.80;0.80;;;21.00;99.90;;;;;;4952129;28;20232;-68
2021/07/02 02:39:34;;;;;;;0.73;0.73;;;21.00;99.90;;;;;;4950261;29;20220;-69
2021/07/02 02:42:03;;;;;;;0.77;0.77;;;21.00;99.90;;;;;;4965193;28;20206;-68
2021/07/02 02:44:33;;;;;;;0.70;0.70;;;21.00;99.90;;;;;;4948658;28;20214;-69
2021/07/02 02:47:01;;;;;;;0.90;0.90;;;20.90;99.90;;;;;;4962672;28;20208;-69
2021/07/02 02:49:28;;;;;;;0.80;0.80;;;20.90;99.90;;;;;;4940679;29;20276;-69
2021/07/02 02:51:55;;;;;;;0.80;0.80;;;20.90;99.90;;;;;;4950124;28;20558;-69
2021/07/02 02:54:23;;;;;;;1.50;0.98;;;20.90;99.90;;;;;;4949723;28;20213;-68
2021/07/02 02:57:05;;;;;;;1.00;1.00;;;20.90;99.90;;;;;;4950196;28;20248;-68
2021/07/02 02:59:37;;;;;;;0.80;0.80;;;20.80;99.90;;;;;;4943774;28;20228;-69
2021/07/02 03:02:06;;;;;;;0.85;0.85;;;20.80;99.90;;;;;;4950154;28;20201;-69
2021/07/02 03:04:36;;;;;;;1.08;1.08;;;20.80;99.90;;;;;;4948736;28;20220;-68
2021/07/02 03:07:06;;;;;;;1.30;1.20;;;20.80;99.90;;;;;;4951265;28;20397;-68
2021/07/02 03:09:35;;;;;;;1.42;1.10;;;20.80;99.90;;;;;;4949709;28;20216;-67
2021/07/02 03:12:03;;;;;;;0.93;0.93;;;20.80;99.90;;;;;;4950603;29;20225;-67
2021/07/02 03:14:30;;;;;;;1.17;1.17;;;20.70;99.90;;;;;;4949024;28;20616;-69
2021/07/02 03:16:59;;;;;;;1.20;1.20;;;20.70;99.90;;;;;;4965041;28;20225;-68
2021/07/02 03:19:31;;;;;;;1.10;1.10;;;20.70;99.90;;;;;;4948611;28;20637;-68
2021/07/02 03:21:59;;;;;;;1.30;1.30;;;20.70;99.90;;;;;;4965333;28;20610;-68
2021/07/02 03:24:27;;;;;;;1.48;1.38;;;20.70;99.90;;;;;;4949134;28;20216;-68
2021/07/02 03:26:54;;;;;;;1.33;1.23;;;20.70;99.90;;;;;;4965831;28;20681;-68
2021/07/02 03:29:24;;;;;;;1.05;1.05;;;20.60;99.90;;;;;;4949073;28;20209;-68
2021/07/02 03:31:53;;;;;;;2.13;1.65;;;20.60;99.90;;;;;;4948809;29;20263;-68
2021/07/02 03:34:22;;;;;;;1.70;1.60;;;20.60;99.90;;;;;;4947505;28;20237;-69
2021/07/02 03:36:49;;;;;;;1.40;1.40;;;20.60;99.90;;;;;;4964301;28;20236;-69
2021/07/02 03:39:17;;;;;;;1.30;1.30;;;20.60;99.90;;;;;;4950628;29;20515;-68
2021/07/02 03:41:45;;;;;;;1.70;1.60;;;20.60;99.90;;;;;;4950343;28;20284;-69
2021/07/02 03:44:14;;;;;;;1.60;1.50;;;20.60;99.90;;;;;;4948160;28;20209;-68
2021/07/02 03:46:41;;;;;;;1.40;1.40;;;20.60;99.90;;;;;;4964087;28;20209;-69
2021/07/02 03:49:08;;;;;;;2.10;2.00;;;20.60;99.90;;;;;;4948404;28;20279;-69
2021/07/02 03:51:37;;;;;;;2.20;2.00;;;20.60;99.90;;;;;;4950738;29;20237;-69
2021/07/02 03:54:04;;;;;;;1.90;1.80;;;20.50;99.90;;;;;;4950394;28;20273;-68
2021/07/02 03:56:30;;;;;;;1.73;1.67;;;20.50;99.90;;;;;;4951826;28;20304;-69
2021/07/02 03:58:58;;;;;;;1.73;1.63;;;20.50;99.90;;;;;;4953969;28;20626;-68
2021/07/02 04:01:25;;;;;;;1.95;1.80;;;20.50;99.90;;;;;;4952561;28;20311;-69
2021/07/02 04:03:51;;;;;;;2.00;1.90;;;20.50;99.90;;;;;;4952939;28;20205;-69
2021/07/02 04:06:18;;;;;;;1.90;1.80;;;20.50;99.90;;;;;;4969424;28;20323;-69
2021/07/02 04:08:47;;;;;;;2.00;1.90;;;20.50;99.90;;;;;;4951438;28;20252;-69
2021/07/02 04:11:14;;;;;;;1.95;1.85;;;20.50;99.90;;;;;;4955049;28;20586;-68
2021/07/02 04:13:41;;;;;;;2.63;2.42;;;20.50;99.90;;;;;;4967792;28;20213;-69
2021/07/02 04:16:08;;;;;;;2.50;2.40;;;20.50;99.90;;;;;;4953961;29;20221;-69
2021/07/02 04:18:35;;;;;;;2.63;2.50;;;20.60;99.90;;;;;;4967233;28;20249;-68
2021/07/02 04:21:02;;;;;;;2.50;2.30;;;20.50;99.90;;;;;;4954120;29;20228;-69
2021/07/02 04:23:29;;;;;;;2.25;2.10;;;20.50;99.90;;;;;;4953537;29;20292;-69
2021/07/02 04:25:57;;;;;;;2.20;2.00;;;20.50;99.90;;;;;;4954810;28;20280;-69
2021/07/02 04:28:24;;;;;;;2.67;2.17;;;20.50;99.90;;;;;;4967934;28;20208;-69
2021/07/02 04:30:51;;;;;;;2.33;2.13;;;20.50;99.90;;;;;;4947523;28;20236;-69
2021/07/02 04:33:18;;;;;;;2.10;2.00;;;20.50;99.90;;;;;;4951825;28;20204;-68
2021/07/02 04:35:45;;;;;;;2.28;2.13;;;20.60;99.90;;;;;;4948965;28;20201;-68
2021/07/02 04:38:12;;;;;;;2.55;2.35;;;20.60;99.90;;;;;;4968502;28;20244;-68
2021/07/02 04:40:39;;;;;;;2.60;2.40;;;20.60;99.90;;;;;;4954382;28;20681;-68
2021/07/02 04:43:07;;;;;;;1.95;1.85;;;20.60;99.90;;;;;;4952871;28;20256;-68
2021/07/02 04:45:34;;;;;;;2.95;1.90;;;20.60;99.90;;;;;;4953341;28;20692;-68
2021/07/02 04:48:01;;;;;;;2.00;1.90;;;20.60;99.90;;;;;;4952325;28;20221;-67
2021/07/02 04:50:28;;;;;;;2.25;2.15;;;20.60;99.90;;;;;;4953325;29;20224;-68
2021/07/02 04:52:55;;;;;;;2.55;2.00;;;20.70;99.90;;;;;;4953802;29;20205;-70
2021/07/02 04:55:22;;;;;;;2.58;2.40;;;20.70;99.90;;;;;;4951732;29;20296;-68
2021/07/02 04:57:49;;;;;;;2.60;2.38;;;20.70;99.90;;;;;;4945093;29;20226;-68
2021/07/02 05:00:18;;;;;;;2.20;2.10;;;20.70;99.90;;;;;;4965051;28;20289;-68
2021/07/02 05:02:45;;;;;;;2.42;2.33;;;20.80;99.90;;;;;;4951532;28;20304;-68
2021/07/02 05:05:12;;;;;;;2.35;2.22;;;20.80;99.90;;;;;;4951874;29;20201;-68
2021/07/02 05:07:40;;;;;;;2.10;2.00;;;20.80;99.90;;;;;;4952717;28;20194;-69
2021/07/02 05:10:08;;;;;;;2.40;2.30;;;20.80;99.90;;;;;;4952531;28;20201;-68
2021/07/02 05:12:35;;;;;;;2.03;1.92;;;20.80;99.90;;;;;;4951617;29;20619;-68
2021/07/02 05:15:03;;;;;;;2.20;2.10;;;20.80;99.90;;;;;;4952229;29;20256;-69
2021/07/02 05:17:32;;;;;;;2.33;2.22;;;20.90;99.90;;;;;;4952068;29;20235;-69
2021/07/02 05:19:59;;;;;;;2.42;2.22;;;20.90;99.90;;;;;;4950788;29;20216;-69
2021/07/02 05:22:26;;;;;;;2.17;1.98;;;20.90;99.90;;;;;;4953269;28;20204;-69
2021/07/02 05:24:53;;;;;;;2.42;2.22;;;20.90;99.90;;;;;;4953184;28;20539;-69
2021/07/02 05:27:20;;;;;;;2.55;2.35;;;20.90;99.90;;;;;;4950282;29;20661;-69
2021/07/02 05:29:47;;;;;;;2.10;2.00;;;21.00;99.90;;;;;;4950872;29;20674;-69
2021/07/02 05:32:14;;;;;;;3.08;2.33;;;21.00;99.90;;;;;;4966887;28;20621;-68
2021/07/02 05:34:43;;;;;;;2.58;2.42;;;21.10;99.90;;;;;;4951168;28;20565;-68
2021/07/02 05:37:10;;;;;;;2.40;2.30;;;21.10;99.90;;;;;;4950985;28;20287;-69
2021/07/02 05:39:37;;;;;;;2.35;2.25;;;21.10;99.90;;;;;;4952324;28;20271;-69
2021/07/02 05:42:05;;;;;;;2.67;2.53;;;21.20;99.90;;;;;;4952225;28;20221;-69
2021/07/02 05:44:31;;;;;;;2.47;2.38;;;21.20;99.90;;;;;;4951407;29;20212;-69
2021/07/02 05:46:58;;;;;;;2.78;2.58;;;21.20;99.90;;;;;;4950169;29;20535;-69
2021/07/02 05:49:25;;;;;;;2.38;2.28;;;21.30;99.90;;;;;;4955311;28;20578;-69
2021/07/02 05:51:54;;;;;;;2.60;2.40;;;21.30;99.90;;;;;;4952274;28;20232;-69
2021/07/02 05:54:21;;;;;;;2.78;2.58;;;21.30;99.90;;;;;;4950769;29;20209;-69
2021/07/02 05:56:51;;;;;;;2.33;2.22;;;21.40;99.90;;;;;;4950497;29;20281;-69
2021/07/02 05:59:18;;;;;;;2.15;2.03;;;21.40;99.90;;;;;;4956713;28;20736;-69
2021/07/02 06:01:45;;;;;;;2.80;2.60;;;21.50;99.90;;;;;;4949926;28;20216;-69
2021/07/02 06:04:12;;;;;;;2.63;2.28;;;21.60;99.90;;;;;;4951178;28;20209;-69
2021/07/02 06:06:39;;;;;;;2.72;2.53;;;21.60;99.90;;;;;;4951929;28;20201;-70
2021/07/02 06:09:08;;;;;;;4.07;3.53;;;21.70;99.90;;;;;;4952405;29;20193;-69
2021/07/02 06:11:34;;;;;;;3.15;2.95;;;21.60;99.90;;;;;;4952454;28;20220;-69
2021/07/02 06:14:01;;;;;;;4.43;3.70;;;21.60;99.90;;;;;;4950240;28;20296;-69
2021/07/02 06:16:28;;;;;;;3.13;2.80;;;21.60;99.90;;;;;;4951160;29;20201;-69
2021/07/02 06:18:55;;;;;;;3.00;2.75;;;21.60;99.90;;;;;;4950407;28;20232;-70
2021/07/02 06:21:22;;;;;;;2.90;2.70;;;21.60;99.90;;;;;;4950669;28;20301;-69
2021/07/02 06:23:49;;;;;;;3.80;3.47;;;21.60;99.90;;;;;;4943018;28;20679;-69
2021/07/02 06:26:18;;;;;;;3.80;3.50;;;21.70;99.90;;;;;;4951701;29;20202;-69
2021/07/02 06:28:45;;;;;;;2.80;2.60;;;21.50;99.90;;;;;;4950986;28;20212;-67
2021/07/02 06:31:12;;;;;;;2.80;2.60;;;21.50;99.90;;;;;;4951230;28;20229;-70
2021/07/02 06:33:39;;;;;;;5.65;3.40;;;21.60;99.90;;;;;;4950070;28;20205;-68
2021/07/02 06:36:06;;;;;;;3.10;2.90;;;21.60;99.90;;;;;;4949957;29;20275;-69
2021/07/02 06:38:33;;;;;;;3.55;2.90;;;21.60;99.90;;;;;;4951254;29;20225;-69
2021/07/02 06:41:00;;;;;;;2.80;2.60;;;21.60;99.90;;;;;;4951469;28;20254;-68
2021/07/02 06:43:28;;;;;;;3.08;2.88;;;21.60;99.90;;;;;;4942311;28;20205;-68
2021/07/02 06:45:55;;;;;;;3.65;2.90;;;21.70;99.90;;;;;;4945020;28;20661;-64
2021/07/02 06:48:22;;;;;;;2.42;2.30;;;21.80;99.90;;;;;;4960572;28;20200;-65
2021/07/02 06:50:50;;;;;;;3.15;2.28;;;21.80;99.90;;;;;;4948368;29;20304;-65
2021/07/02 06:53:19;;;;;;;2.60;2.40;;;21.90;99.90;;;;;;4940383;28;20204;-64
2021/07/02 06:55:46;;;;;;;2.90;2.70;;;21.90;99.90;;;;;;4943303;28;20506;-65
2021/07/02 06:58:13;;;;;;;3.20;3.00;;;22.00;99.90;;;;;;4946259;29;20753;-66
2021/07/02 07:00:41;;;;;;;2.80;2.60;;;22.00;99.90;;;;;;4946756;28;20628;-66
2021/07/02 07:03:08;;;;;;;3.10;2.83;;;22.10;99.90;;;;;;4946054;29;20201;-66
2021/07/02 07:05:36;;;;;;;2.67;2.28;;;22.20;99.90;;;;;;4946889;29;20280;-64
2021/07/02 07:08:04;;;;;;;2.65;2.45;;;22.20;99.90;;;;;;4945958;28;21079;-65
2021/07/02 07:10:31;;;;;;;4.07;3.45;;;22.20;99.90;;;;;;4947102;28;20248;-65
2021/07/02 07:12:59;;;;;;;4.30;2.78;;;22.30;99.90;;;;;;4943639;28;20201;-65
2021/07/02 07:15:27;;;;;;;2.85;2.60;;;22.20;99.90;;;;;;4941448;28;20210;-64
2021/07/02 07:17:55;;;;;;;2.88;2.67;;;22.20;99.90;;;;;;4945598;28;20207;-65
2021/07/02 07:20:22;;;;;;;2.28;2.15;;;22.30;99.90;;;;;;4962520;28;20231;-65
2021/07/02 07:22:50;;;;;;;2.40;2.30;;;22.40;99.90;;;;;;4961657;28;20884;-65
2021/07/02 07:25:20;;;;;;;2.30;2.20;;;22.70;99.90;;;;;;4947087;29;20562;-65
2021/07/02 07:27:48;;;;;;;2.72;2.00;;;22.60;99.90;;;;;;4944935;29;20209;-65
2021/07/02 07:30:15;;;;;;;2.00;1.90;;;22.60;99.90;;;;;;4946516;28;20798;-65
2021/07/02 07:32:44;;;;;;;2.70;2.20;;;22.70;99.90;;;;;;4946967;28;20768;-65
2021/07/02 07:35:19;;;;;;;2.08;1.98;;;22.70;99.90;;;;;;4945975;28;20189;-65
2021/07/02 07:37:47;;;;;;;2.45;2.20;;;22.80;99.90;;;;;;4961657;28;20616;-65
2021/07/02 07:40:15;;;;;;;2.05;1.95;;;22.90;99.90;;;;;;4947787;28;20256;-65
2021/07/02 07:42:42;;;;;;;2.75;1.75;;;22.90;99.90;;;;;;4946024;29;20308;-65
2021/07/02 07:45:09;;;;;;;2.03;1.92;;;23.00;99.90;;;;;;4946583;29;20209;-65
2021/07/02 07:47:36;;;;;;;2.45;2.30;;;23.00;99.90;;;;;;4944286;29;20228;-65
2021/07/02 07:50:08;;;;;;;3.03;2.20;;;23.00;99.90;;;;;;4946367;29;20205;-65
2021/07/02 07:55:20;;;;;;;2.38;2.17;;;23.10;99.90;;;;;;4925095;29;20209;-65
2021/07/02 07:57:48;;;;;;;2.25;2.05;;;23.20;99.90;;;;;;4925670;29;21025;-65
2021/07/02 08:00:16;;;;;;;2.03;1.92;;;23.20;99.90;;;;;;4924878;29;20224;-65
2021/07/02 08:02:43;;;;;;;1.95;1.83;;;23.20;99.90;;;;;;4908798;29;20198;-65
2021/07/02 08:05:12;;;;;;;1.90;1.80;;;23.20;99.90;;;;;;4908631;29;20288;-66
2021/07/02 08:07:41;;;;;;;2.13;2.03;;;23.20;99.90;;;;;;4925430;29;20214;-66
2021/07/02 08:10:10;;;;;;;1.67;1.58;;;23.20;99.90;;;;;;4925777;29;20212;-66
2021/07/02 08:12:38;;;;;;;1.92;1.65;;;23.30;99.90;;;;;;4923630;29;20289;-65
2021/07/02 08:15:07;;;;;;;1.60;1.50;;;23.40;99.90;;;;;;4924892;29;20211;-66
2021/07/02 08:17:35;;;;;;;1.63;1.52;;;23.40;99.90;;;;;;4924715;29;20240;-64
2021/07/02 08:20:02;;;;;;;1.55;1.55;;;23.40;99.90;;;;;;4924184;29;20241;-65
2021/07/02 08:22:29;;;;;;;1.40;1.40;;;23.40;99.90;;;;;;4925987;29;20198;-64
2021/07/02 08:24:57;;;;;;;1.50;1.40;;;23.50;99.90;;;;;;4924789;29;20202;-65
2021/07/02 08:27:25;;;;;;;1.65;1.52;;;23.50;99.90;;;;;;4924752;29;20210;-64
2021/07/02 08:29:51;;;;;;;1.42;1.42;;;23.50;99.90;;;;;;4924502;29;20416;-64
2021/07/02 08:32:18;;;;;;;1.92;1.83;;;23.50;99.90;;;;;;4932570;28;20233;-64
2021/07/02 08:34:45;;;;;;;1.70;1.60;;;23.50;99.90;;;;;;4946808;28;20253;-66
2021/07/02 08:37:12;;;;;;;1.98;1.63;;;23.40;99.90;;;;;;4944930;28;20235;-65
2021/07/02 08:39:39;;;;;;;1.58;1.48;;;23.40;99.90;;;;;;4946948;28;20311;-64
2021/07/02 08:42:10;;;;;;;1.70;1.60;;;23.40;99.90;;;;;;4947380;28;20248;-65
2021/07/02 08:44:37;;;;;;;1.63;1.50;;;23.40;99.90;;;;;;4947426;28;20662;-64
2021/07/02 08:47:05;;;;;;;1.75;1.65;;;23.40;99.90;;;;;;4949226;28;20291;-65
2021/07/02 08:49:33;;;;;;;1.63;1.52;;;23.30;99.90;;;;;;4946109;28;20301;-65
2021/07/02 08:52:00;;;;;;;1.40;1.40;;;23.30;99.90;;;;;;4947841;28;20204;-65
2021/07/02 08:54:27;;;;;;;1.73;1.60;;;23.30;99.90;;;;;;4948378;28;20198;-64
2021/07/02 08:56:57;;;;;;;1.88;1.77;;;23.30;99.90;;;;;;4949209;28;20947;-65
2021/07/02 08:59:27;;;;;;;2.00;1.90;;;23.30;99.90;;;;;;4948916;28;20720;-65
2021/07/02 09:01:54;;;;;;;1.88;1.77;;;23.30;99.90;;;;;;4947812;28;20209;-66
2021/07/02 09:04:23;;;;;;;2.05;1.95;;;23.40;99.90;;;;;;4963362;28;20295;-65
2021/07/02 09:07:05;;;;;;;1.90;1.80;;;23.40;99.90;;;;;;4948091;29;20198;-64
2021/07/02 09:09:54;;;;;;;1.85;1.75;;;23.40;99.90;;;;;;4947717;28;20695;-64
2021/07/02 09:12:22;;;;;;;1.48;1.38;;;23.40;99.90;;;;;;4958915;28;20820;-66
2021/07/02 09:15:05;;;;;;;2.08;1.98;;;23.50;99.90;;;;;;4949411;28;20220;-66
2021/07/02 09:17:34;;;;;;;2.00;1.52;;;23.50;99.90;;;;;;4948604;28;20654;-65
2021/07/02 09:20:15;;;;;;;2.03;1.92;;;23.60;99.90;;;;;;4949451;28;20255;-66
2021/07/02 09:22:45;;;;;;;2.75;2.40;;;23.60;99.90;;;;;;4949843;28;20280;-65
2021/07/02 09:25:23;;;;;;;3.47;2.80;;;23.70;99.90;;;;;;4964252;28;20693;-65
2021/07/02 09:27:51;;;;;;;2.65;2.45;;;23.60;99.90;;;;;;4949514;28;20283;-64
2021/07/02 09:30:21;;;;;;;2.50;2.30;;;23.60;99.90;;;;;;4948783;28;20287;-65
2021/07/02 09:32:50;;;;;;;1.88;1.77;;;23.70;99.90;;;;;;4946772;28;20197;-74
2021/07/02 09:35:19;;;;;;;1.90;1.80;;;23.70;99.90;;;;;;4948345;28;20284;-74
2021/07/02 09:37:50;;;;;;;1.85;1.75;;;23.80;99.90;;;;;;4948423;28;20668;-75
2021/07/02 09:40:21;;;;;;;2.20;2.10;;;23.90;99.90;;;;;;4947359;28;20434;-75
2021/07/02 09:42:49;;;;;;;2.00;1.90;;;23.90;99.90;;;;;;4948369;28;20617;-74
2021/07/02 09:45:18;;;;;;;2.72;2.53;;;23.90;99.90;;;;;;4947598;28;20205;-75
2021/07/02 09:47:47;;;;;;;2.63;2.42;;;23.90;99.90;;;;;;4943886;28;20287;-69
2021/07/02 09:50:23;;;;;;;2.10;2.00;;;23.90;99.90;;;;;;4946721;28;20224;-67
2021/07/02 09:52:52;;;;;;;2.10;2.00;;;24.00;99.90;;;;;;4945278;28;20557;-67
2021/07/02 09:55:21;;;;;;;2.72;2.00;;;24.00;99.90;;;;;;4948097;28;20201;-67
2021/07/02 09:57:53;;;;;;;2.10;2.00;;;24.10;99.90;;;;;;4962098;28;20205;-68
2021/07/02 10:00:20;;;;;;;1.83;1.73;;;24.20;99.90;;;;;;4948588;28;20234;-68
2021/07/02 10:02:56;;;;;;;2.30;2.20;;;24.20;99.90;;;;;;4947017;28;20587;-68
2021/07/02 10:05:24;;;;;;;2.08;1.98;;;24.30;99.90;;;;;;4949361;28;20200;-68
2021/07/02 10:08:03;;;;;;;1.95;1.85;;;24.30;99.90;;;;;;4947703;28;20197;-70
2021/07/02 10:10:31;;;;;;;2.00;1.90;;;24.30;99.90;;;;;;4948088;28;20810;-69
2021/07/02 10:12:59;;;;;;;2.00;1.90;;;24.30;99.90;;;;;;4948206;29;20287;-68
2021/07/02 10:15:28;;;;;;;2.10;2.00;;;24.40;99.90;;;;;;4948112;28;20202;-67
2021/07/02 10:18:00;;;;;;;1.92;1.83;;;24.40;99.90;;;;;;4947081;28;20207;-68
2021/07/02 10:20:29;;;;;;;1.83;1.73;;;24.40;99.90;;;;;;4947877;28;20288;-68
2021/07/02 10:22:59;;;;;;;2.08;1.98;;;24.50;99.90;;;;;;4947708;28;20204;-67
2021/07/02 10:25:27;;;;;;;2.03;1.73;;;24.60;99.90;;;;;;4949712;28;20657;-68
2021/07/02 10:27:56;;;;;;;1.80;1.70;;;24.70;99.90;;;;;;4947402;28;20502;-68
2021/07/02 10:30:23;;;;;;;1.90;1.80;;;24.70;99.90;;;;;;4946366;28;20249;-68
2021/07/02 10:32:55;;;;;;;2.15;1.67;;;24.70;99.90;;;;;;4945509;28;20277;-68
2021/07/02 10:35:24;;;;;;;1.98;1.88;;;24.70;99.90;;;;;;4948106;28;20244;-68
2021/07/02 10:37:55;;;;;;;1.80;1.70;;;24.80;99.90;;;;;;4960477;28;20205;-68
2021/07/02 10:40:36;;;;;;;1.60;1.60;;;24.80;99.90;;;;;;4946622;29;20721;-68
2021/07/02 10:43:08;;;;;;;1.77;1.70;;;24.90;99.90;;;;;;4944672;28;20209;-68
2021/07/02 10:45:35;;;;;;;1.77;1.67;;;24.90;99.90;;;;;;4948577;28;20205;-68
2021/07/02 10:48:02;;;;;;;3.25;1.80;;;24.90;99.90;;;;;;4944152;29;20665;-68
2021/07/02 10:50:43;;;;;;;1.98;1.88;;;24.90;99.90;;;;;;4948125;29;20193;-67
2021/07/02 10:53:28;;;;;;;1.90;1.80;;;24.90;99.90;;;;;;4947273;29;20269;-69
2021/07/02 10:55:56;;;;;;;3.25;1.90;;;24.90;99.90;;;;;;4948144;28;20298;-68
2021/07/02 10:58:23;;;;;;;2.47;2.10;;;25.00;99.90;;;;;;4947897;29;20303;-67
2021/07/02 11:01:10;;;;;;;1.90;1.80;;;25.00;99.90;;;;;;4947572;29;20304;-68
2021/07/02 11:03:39;;;;;;;2.75;2.35;;;25.00;99.90;;;;;;4940887;28;20200;-68
2021/07/02 11:06:39;;;;;;;2.30;2.10;;;24.90;99.90;;;;;;4947349;28;20208;-68
2021/07/02 11:09:07;;;;;;;1.90;1.80;;;25.00;99.90;;;;;;4904004;29;20663;-67
2021/07/02 11:12:05;;;;;;;1.90;1.80;;;25.00;99.90;;;;;;4906896;29;20204;-68
2021/07/02 11:14:33;;;;;;;2.47;2.38;;;25.00;99.90;;;;;;4905974;29;20209;-66
2021/07/02 11:17:24;;;;;;;2.28;2.17;;;25.00;99.90;;;;;;4905654;29;20209;-67
2021/07/02 11:20:28;;;;;;;2.70;2.50;;;24.90;99.90;;;;;;4849438;29;20235;-68
2021/07/02 11:23:15;;;;;;;2.58;2.25;;;24.80;99.90;;;;;;4851208;29;20253;-66
2021/07/02 11:25:47;;;;;;;3.08;2.80;;;24.80;99.90;;;;;;4850045;29;20216;-66
2021/07/02 11:28:18;;;;;;;2.95;2.22;;;24.80;99.90;;;;;;4834257;29;20701;-65
2021/07/02 11:30:47;;;;;;;1.90;1.80;;;24.80;99.90;;;;;;4851019;29;20246;-64
2021/07/02 11:33:19;;;;;;;3.20;2.50;;;24.80;99.90;;;;;;4848199;29;20209;-66
2021/07/02 11:35:48;;;;;;;2.38;2.17;;;24.70;99.90;;;;;;4851931;29;20417;-65
2021/07/02 11:38:18;;;;;;;2.28;2.10;;;24.70;99.90;;;;;;4849442;29;21060;-65
2021/07/02 11:40:50;;;;;;;2.40;1.92;;;24.70;99.90;;;;;;4850395;29;20241;-66
2021/07/02 11:43:19;;;;;;;2.45;2.30;;;24.60;99.90;;;;;;4849407;29;20227;-66
2021/07/02 11:45:48;;;;;;;2.10;2.00;;;24.50;99.90;;;;;;4872357;29;20329;-66
2021/07/02 11:48:29;;;;;;;3.30;2.10;;;24.50;99.90;;;;;;4885591;29;20267;-67
2021/07/02 11:50:58;;;;;;;2.35;2.25;;;24.50;99.90;;;;;;4885710;29;20195;-66
2021/07/02 11:53:32;;;;;;;2.25;2.05;;;24.50;99.90;;;;;;4887534;29;20310;-65
2021/07/02 11:56:00;;;;;;;2.38;2.22;;;24.50;99.90;;;;;;4908667;28;20319;-66
2021/07/02 11:58:29;;;;;;;2.10;2.00;;;24.50;99.90;;;;;;4945746;29;20204;-66
2021/07/02 12:00:58;;;;;;;2.22;2.13;;;24.50;99.90;;;;;;4945874;28;20213;-65
2021/07/02 12:03:25;;;;;;;1.92;1.83;;;24.50;99.90;;;;;;4945727;28;20607;-66
2021/07/02 12:05:54;;;;;;;2.10;2.00;;;24.50;99.90;;;;;;4947458;28;20197;-67
2021/07/02 12:08:23;;;;;;;1.88;1.77;;;24.50;99.90;;;;;;4946935;28;20194;-66
2021/07/02 12:10:59;;;;;;;2.28;2.17;;;24.50;99.90;;;;;;4944092;28;20534;-65
2021/07/02 12:13:27;;;;;;;2.55;2.30;;;24.60;99.90;;;;;;4939677;29;20267;-66
2021/07/02 12:16:06;;;;;;;1.95;1.85;;;24.50;99.90;;;;;;4960911;28;20300;-66
2021/07/02 12:18:34;;;;;;;2.28;2.17;;;24.50;99.90;;;;;;4947439;28;20221;-66
2021/07/02 12:21:03;;;;;;;2.72;1.90;;;24.50;99.90;;;;;;4951134;28;20217;-65
2021/07/02 12:23:32;;;;;;;2.17;2.08;;;24.60;99.90;;;;;;4950387;28;20201;-65
2021/07/02 12:26:15;;;;;;;1.90;1.80;;;24.60;99.90;;;;;;4950756;28;20568;-64
2021/07/02 12:29:07;;;;;;;2.58;2.10;;;24.60;99.90;;;;;;4949985;28;20221;-65
2021/07/02 12:31:36;;;;;;;2.53;2.33;;;24.60;99.90;;;;;;4946419;28;20221;-71
2021/07/02 12:34:05;;;;;;;2.45;2.33;;;24.50;99.90;;;;;;4949676;29;20227;-73
2021/07/02 12:36:34;;;;;;;2.30;2.20;;;24.50;99.90;;;;;;4950628;28;20280;-72
2021/07/02 12:39:10;;;;;;;2.50;2.30;;;24.40;99.90;;;;;;4949908;29;20252;-71
2021/07/02 12:41:45;;;;;;;2.10;2.00;;;24.30;99.90;;;;;;4950953;28;20239;-73
2021/07/02 12:44:17;;;;;;;2.65;2.08;;;24.30;99.90;;;;;;4949008;28;20221;-72
2021/07/02 12:46:45;;;;;;;2.95;2.60;;;24.30;99.90;;;;;;4949289;29;20715;-72
2021/07/02 12:49:27;;;;;;;2.88;2.70;;;24.20;99.90;;;;;;4949984;28;20201;-71
2021/07/02 12:54:48;;;;;;;2.20;2.00;;;24.10;99.90;;;;;;4927972;29;20198;-72
2021/07/02 12:57:25;;;;;;;2.13;2.03;;;24.10;99.90;;;;;;4913642;29;20214;-72
2021/07/02 12:59:53;;;;;;;2.05;1.95;;;24.00;99.90;;;;;;4929606;29;20226;-72
2021/07/02 13:02:29;;;;;;;2.30;2.10;;;24.00;99.90;;;;;;4928265;29;20210;-69
2021/07/02 13:04:56;;;;;;;2.35;2.25;;;24.00;99.90;;;;;;4928290;29;20205;-71